Time;durP1;ratioP1;P1;durP2;ratioP2;P2;SDS_P1;SDS_P2;PMS_P1;PMS_P2;Temp;Humidity;BMP_temperature;BMP_pressure;BME280_temperature;BME280_humidity;BME280_pressure;Samples;Min_cycle;Max_cycle;Signal;HPM_P1;HPM_P2
2021/12/12 00:01:20;;;;;;;;;15.00;12.00;;;;;;;;4970927;28;45850;-70
2021/12/12 00:03:50;;;;;;;;;18.75;15.00;;;;;;;;4951334;28;45318;-71
2021/12/12 00:06:18;;;;;;;;;15.00;14.00;;;;;;;;4956437;28;45489;-70
2021/12/12 00:08:44;;;;;;;;;20.75;15.50;;;;;;;;4951341;28;45417;-70
2021/12/12 00:11:13;;;;;;;;;19.75;12.75;;;;;;;;4956138;28;45998;-71
2021/12/12 00:13:42;;;;;;;;;17.00;14.00;;;;;;;;4959422;28;45466;-70
2021/12/12 00:16:09;;;;;;;;;18.00;14.50;;;;;;;;4956491;28;45523;-68
2021/12/12 00:18:34;;;;;;;;;14.75;13.25;;;;;;;;4959678;28;46988;-68
2021/12/12 00:21:00;;;;;;;;;15.75;13.25;;;;;;;;4954821;28;45406;-70
2021/12/12 00:23:25;;;;;;;;;21.25;15.50;;;;;;;;4955838;28;45497;-70
2021/12/12 00:25:53;;;;;;;;;17.75;14.75;;;;;;;;4959176;28;45672;-70
2021/12/12 00:28:21;;;;;;;;;19.75;15.00;;;;;;;;4957413;28;45653;-70
2021/12/12 00:30:47;;;;;;;;;22.75;13.75;;;;;;;;4960250;28;45547;-71
2021/12/12 00:33:13;;;;;;;;;20.00;14.75;;;;;;;;4963866;28;45331;-71
2021/12/12 00:35:39;;;;;;;;;14.25;14.25;;;;;;;;4958006;28;45573;-71
2021/12/12 00:38:07;;;;;;;;;16.00;15.25;;;;;;;;4960585;28;46519;-71
2021/12/12 00:40:35;;;;;;;;;16.25;11.75;;;;;;;;4967042;28;45906;-71
2021/12/12 00:43:02;;;;;;;;;15.00;14.00;;;;;;;;4959179;28;45437;-69
2021/12/12 00:45:28;;;;;;;;;16.75;14.75;;;;;;;;4957850;28;45300;-69
2021/12/12 00:47:54;;;;;;;;;17.75;14.75;;;;;;;;4958735;28;45407;-69
2021/12/12 00:50:24;;;;;;;;;17.50;14.50;;;;;;;;4960300;28;46031;-69
2021/12/12 00:52:51;;;;;;;;;15.00;12.00;;;;;;;;4961097;28;45362;-69
2021/12/12 00:55:16;;;;;;;;;17.75;14.00;;;;;;;;4964795;28;45450;-69
2021/12/12 00:57:41;;;;;;;;;14.50;13.75;;;;;;;;4955890;28;47307;-69
2021/12/12 01:00:09;;;;;;;;;20.00;12.25;;;;;;;;4966873;28;45453;-69
2021/12/12 01:02:34;;;;;;;;;15.25;14.50;;;;;;;;4958699;28;45423;-69
2021/12/12 01:05:00;;;;;;;;;18.25;14.25;;;;;;;;4962206;28;45595;-69
2021/12/12 01:07:29;;;;;;;;;17.25;12.75;;;;;;;;4960014;28;45469;-69
2021/12/12 01:09:57;;;;;;;;;21.00;14.50;;;;;;;;4958551;28;45464;-68
2021/12/12 01:12:26;;;;;;;;;17.75;14.75;;;;;;;;4958921;28;45468;-69
2021/12/12 01:14:55;;;;;;;;;14.00;14.00;;;;;;;;4960454;28;45449;-68
2021/12/12 01:17:22;;;;;;;;;15.50;12.25;;;;;;;;4962968;28;47192;-69
2021/12/12 01:19:52;;;;;;;;;16.50;13.75;;;;;;;;4962822;28;45868;-69
2021/12/12 01:22:23;;;;;;;;;11.75;10.50;;;;;;;;4960235;28;45487;-69
2021/12/12 01:24:50;;;;;;;;;18.00;12.25;;;;;;;;4970999;28;45473;-69
2021/12/12 01:27:16;;;;;;;;;16.00;13.25;;;;;;;;4957754;28;46391;-70
2021/12/12 01:29:42;;;;;;;;;16.75;12.25;;;;;;;;4958392;28;45547;-69
2021/12/12 01:32:22;;;;;;;;;17.75;12.25;;;;;;;;4957461;28;45556;-69
2021/12/12 01:34:50;;;;;;;;;12.00;12.00;;;;;;;;4957561;28;45361;-69
2021/12/12 01:39:57;;;;;;;;;11.00;11.00;;;;;;;;4965999;28;45438;-70
2021/12/12 01:42:49;;;;;;;;;13.00;11.75;;;;;;;;4954367;28;46135;-69
2021/12/12 01:45:14;;;;;;;;;15.75;10.50;;;;;;;;4968543;28;45353;-69
2021/12/12 01:47:50;;;;;;;;;14.00;12.33;;;;;;;;4960479;28;45365;-69
2021/12/12 01:50:21;;;;;;;;;21.00;11.75;;;;;;;;4958942;28;45855;-69
2021/12/12 01:52:47;;;;;;;;;10.00;10.00;;;;;;;;4959047;28;45484;-69
2021/12/12 01:55:21;;;;;;;;;14.00;10.25;;;;;;;;4957206;28;45487;-69
2021/12/12 01:57:46;;;;;;;;;10.50;10.50;;;;;;;;4950771;28;46515;-69
2021/12/12 02:00:15;;;;;;;;;14.50;10.75;;;;;;;;4967661;28;45759;-69
2021/12/12 02:02:41;;;;;;;;;10.25;7.75;;;;;;;;4963590;28;45719;-69
2021/12/12 02:05:10;;;;;;;;;15.25;11.00;;;;;;;;4960795;28;45669;-69
2021/12/12 02:07:37;;;;;;;;;11.50;10.25;;;;;;;;4954760;28;45606;-69
2021/12/12 02:10:06;;;;;;;;;7.00;7.00;;;;;;;;4957732;28;45882;-69
2021/12/12 02:12:32;;;;;;;;;8.00;7.25;;;;;;;;4961623;28;45555;-70
2021/12/12 02:14:58;;;;;;;;;10.00;10.00;;;;;;;;4957127;28;45409;-69
2021/12/12 02:17:30;;;;;;;;;11.25;9.50;;;;;;;;4967635;28;46221;-69
2021/12/12 02:20:08;;;;;;;;;10.25;10.00;;;;;;;;4962882;28;45790;-69
2021/12/12 02:22:57;;;;;;;;;12.75;9.50;;;;;;;;4957056;28;45555;-69
2021/12/12 02:36:22;;;;;;;;;14.25;10.25;;;;;;;;4956701;28;45368;-69
2021/12/12 02:38:49;;;;;;;;;9.25;7.00;;;;;;;;4959674;28;46599;-69
2021/12/12 02:41:15;;;;;;;;;8.75;6.25;;;;;;;;4959154;28;45369;-69
2021/12/12 02:43:43;;;;;;;;;7.00;7.00;;;;;;;;4955569;28;45464;-69
2021/12/12 02:46:10;;;;;;;;;8.25;7.50;;;;;;;;4963438;28;45539;-69
2021/12/12 02:48:39;;;;;;;;;7.00;7.00;;;;;;;;4956132;28;45572;-69
2021/12/12 02:51:07;;;;;;;;;8.50;5.00;;;;;;;;4956526;28;45473;-69
2021/12/12 02:53:38;;;;;;;;;11.75;8.25;;;;;;;;4955888;28;45546;-69
2021/12/12 02:56:11;;;;;;;;;9.75;7.00;;;;;;;;4956554;28;45368;-69
2021/12/12 02:58:37;;;;;;;;;10.50;7.00;;;;;;;;4954977;28;46706;-69
2021/12/12 03:01:11;;;;;;;;;6.75;6.25;;;;;;;;4954274;28;45811;-69
2021/12/12 03:03:38;;;;;;;;;9.50;6.50;;;;;;;;4954710;28;45534;-69
2021/12/12 03:06:05;;;;;;;;;10.75;8.25;;;;;;;;4963586;28;45467;-70
2021/12/12 03:08:30;;;;;;;;;11.00;6.50;;;;;;;;4959385;28;46573;-69
2021/12/12 03:10:55;;;;;;;;;9.25;8.00;;;;;;;;4956007;28;45405;-69
2021/12/12 03:13:21;;;;;;;;;8.50;6.75;;;;;;;;4955411;28;45517;-70
2021/12/12 03:15:47;;;;;;;;;7.50;6.25;;;;;;;;4956008;28;45372;-70
2021/12/12 03:18:16;;;;;;;;;8.25;5.00;;;;;;;;4957105;28;45532;-70
2021/12/12 03:20:43;;;;;;;;;6.50;5.50;;;;;;;;4955682;28;45630;-70
2021/12/12 03:23:17;;;;;;;;;7.25;6.25;;;;;;;;4955678;28;45654;-69
2021/12/12 03:25:44;;;;;;;;;7.50;6.00;;;;;;;;4955700;28;45451;-70
2021/12/12 03:28:10;;;;;;;;;5.00;5.00;;;;;;;;4955236;28;45785;-70
2021/12/12 03:30:37;;;;;;;;;9.25;7.00;;;;;;;;4955512;28;45744;-69
2021/12/12 03:33:03;;;;;;;;;6.75;6.75;;;;;;;;4965549;28;46649;-70
2021/12/12 03:35:28;;;;;;;;;7.25;7.25;;;;;;;;4968623;28;45488;-70
2021/12/12 03:37:53;;;;;;;;;6.67;5.33;;;;;;;;4964423;28;46346;-70
2021/12/12 03:40:21;;;;;;;;;10.00;8.00;;;;;;;;4963215;28;45384;-70
2021/12/12 03:42:47;;;;;;;;;5.50;5.25;;;;;;;;4956464;28;45464;-70
2021/12/12 03:45:12;;;;;;;;;8.00;6.00;;;;;;;;4955947;28;45400;-70
2021/12/12 03:47:40;;;;;;;;;7.00;7.00;;;;;;;;4957662;28;45954;-70
2021/12/12 03:50:08;;;;;;;;;6.75;6.00;;;;;;;;4956891;28;45941;-70
2021/12/12 03:52:33;;;;;;;;;10.00;7.50;;;;;;;;4970333;28;45444;-70
2021/12/12 03:55:00;;;;;;;;;6.00;6.00;;;;;;;;4955177;28;45590;-70
2021/12/12 03:57:26;;;;;;;;;7.25;5.75;;;;;;;;4955224;28;45458;-70
2021/12/12 03:59:51;;;;;;;;;7.75;6.00;;;;;;;;4959339;28;45456;-70
2021/12/12 04:02:17;;;;;;;;;7.33;7.00;;;;;;;;4961163;28;45356;-70
2021/12/12 04:04:43;;;;;;;;;7.00;7.00;;;;;;;;4956317;28;45501;-70
2021/12/12 04:07:11;;;;;;;;;10.00;7.00;;;;;;;;4956916;28;46677;-70
2021/12/12 04:09:37;;;;;;;;;5.00;5.00;;;;;;;;4954797;28;45322;-70
2021/12/12 04:12:04;;;;;;;;;5.75;5.50;;;;;;;;4955193;28;45456;-70
2021/12/12 04:14:29;;;;;;;;;9.75;7.00;;;;;;;;4961504;28;45407;-70
2021/12/12 04:16:56;;;;;;;;;7.00;7.00;;;;;;;;4960297;28;45384;-70
2021/12/12 04:19:22;;;;;;;;;7.00;7.00;;;;;;;;4955170;28;45648;-70
2021/12/12 04:21:47;;;;;;;;;10.25;9.75;;;;;;;;4958777;28;46717;-70
2021/12/12 04:24:17;;;;;;;;;9.33;7.00;;;;;;;;4959433;28;45460;-70
2021/12/12 04:26:43;;;;;;;;;12.25;10.00;;;;;;;;4955121;28;48360;-70
2021/12/12 04:29:10;;;;;;;;;8.25;5.75;;;;;;;;4958096;28;45452;-70
2021/12/12 04:31:41;;;;;;;;;8.00;8.00;;;;;;;;4955060;28;45380;-70
2021/12/12 04:34:06;;;;;;;;;10.50;8.75;;;;;;;;4961949;28;45524;-70
2021/12/12 04:36:36;;;;;;;;;10.25;10.25;;;;;;;;4957456;28;45765;-70
2021/12/12 04:39:08;;;;;;;;;9.75;6.25;;;;;;;;4961912;28;45321;-71
2021/12/12 04:41:33;;;;;;;;;6.50;6.00;;;;;;;;4959017;28;45507;-70
2021/12/12 04:43:58;;;;;;;;;4.33;4.33;;;;;;;;4966407;28;45412;-71
2021/12/12 04:46:36;;;;;;;;;10.25;6.50;;;;;;;;4957387;28;46696;-71
2021/12/12 04:51:52;;;;;;;;;9.75;8.50;;;;;;;;4955059;28;45329;-70
2021/12/12 04:54:52;;;;;;;;;8.00;6.25;;;;;;;;4954798;28;45493;-70
2021/12/12 04:57:29;;;;;;;;;12.00;7.50;;;;;;;;4933970;28;46836;-71
2021/12/12 05:00:02;;;;;;;;;11.00;11.00;;;;;;;;4939781;28;45468;-70
2021/12/12 05:02:31;;;;;;;;;10.75;8.00;;;;;;;;4944803;28;45493;-71
2021/12/12 05:04:56;;;;;;;;;11.75;10.00;;;;;;;;4945639;28;46160;-70
2021/12/12 05:07:26;;;;;;;;;11.75;10.00;;;;;;;;4939031;28;46205;-71
2021/12/12 05:09:58;;;;;;;;;9.50;9.50;;;;;;;;4950879;28;46043;-71
2021/12/12 05:12:31;;;;;;;;;14.25;9.50;;;;;;;;4942110;28;45786;-71
2021/12/12 05:14:59;;;;;;;;;15.50;11.75;;;;;;;;4939852;28;45403;-70
2021/12/12 05:17:50;;;;;;;;;8.75;6.25;;;;;;;;4946150;28;45506;-71
2021/12/12 05:20:20;;;;;;;;;11.00;11.00;;;;;;;;4939442;28;45481;-70
2021/12/12 05:22:48;;;;;;;;;10.75;10.50;;;;;;;;4940968;28;45516;-71
2021/12/12 05:25:17;;;;;;;;;10.25;10.00;;;;;;;;4951249;28;45525;-71
2021/12/12 05:27:43;;;;;;;;;14.50;10.25;;;;;;;;4950351;28;46340;-71
2021/12/12 05:30:16;;;;;;;;;10.00;10.00;;;;;;;;4943967;28;45479;-70
2021/12/12 05:32:41;;;;;;;;;16.75;11.75;;;;;;;;4960198;28;45774;-71
2021/12/12 05:35:08;;;;;;;;;9.50;8.00;;;;;;;;4959589;28;45384;-70
2021/12/12 05:37:34;;;;;;;;;11.25;10.25;;;;;;;;4957635;28;46605;-71
2021/12/12 05:40:02;;;;;;;;;13.50;8.75;;;;;;;;4969166;28;45424;-71
2021/12/12 05:42:28;;;;;;;;;20.00;11.50;;;;;;;;4961459;28;45570;-70
2021/12/12 05:44:54;;;;;;;;;12.50;10.75;;;;;;;;4957301;28;45261;-71
2021/12/12 05:47:19;;;;;;;;;10.50;9.00;;;;;;;;4956441;28;45365;-70
2021/12/12 05:49:45;;;;;;;;;12.50;8.25;;;;;;;;4959734;28;46760;-71
2021/12/12 05:52:12;;;;;;;;;13.25;11.75;;;;;;;;4957115;28;45574;-71
2021/12/12 05:54:37;;;;;;;;;13.75;12.00;;;;;;;;4968221;28;45341;-71
2021/12/12 05:57:03;;;;;;;;;10.67;10.67;;;;;;;;4961168;28;46427;-70
2021/12/12 05:59:28;;;;;;;;;18.25;15.50;;;;;;;;4957380;28;45562;-70
2021/12/12 06:01:55;;;;;;;;;13.50;12.25;;;;;;;;4956726;28;46969;-71
2021/12/12 06:04:20;;;;;;;;;10.00;8.25;;;;;;;;4960617;28;45752;-71
2021/12/12 06:06:46;;;;;;;;;14.25;12.00;;;;;;;;4958084;28;46304;-70
2021/12/12 06:09:12;;;;;;;;;18.50;12.00;;;;;;;;4972239;28;45413;-70
2021/12/12 06:11:39;;;;;;;;;16.25;13.00;;;;;;;;4958872;28;45436;-70
2021/12/12 06:14:05;;;;;;;;;15.00;9.25;;;;;;;;4958071;28;45643;-71
2021/12/12 06:16:31;;;;;;;;;14.75;12.50;;;;;;;;4957789;28;47150;-70
2021/12/12 06:19:04;;;;;;;;;14.75;12.00;;;;;;;;4966006;28;45975;-71
2021/12/12 06:21:29;;;;;;;;;14.00;12.00;;;;;;;;4957399;28;45330;-71
2021/12/12 06:23:54;;;;;;;;;16.25;11.50;;;;;;;;4962087;28;45329;-71
2021/12/12 06:26:22;;;;;;;;;15.50;13.00;;;;;;;;4958250;28;46425;-71
2021/12/12 06:28:48;;;;;;;;;16.00;12.75;;;;;;;;4956175;28;46577;-70
2021/12/12 06:31:13;;;;;;;;;21.50;13.75;;;;;;;;4956622;28;45522;-70
2021/12/12 06:33:39;;;;;;;;;20.25;12.50;;;;;;;;4950353;28;45448;-71
2021/12/12 06:36:08;;;;;;;;;18.50;12.50;;;;;;;;4957733;28;46166;-71
2021/12/12 06:38:34;;;;;;;;;15.75;13.00;;;;;;;;4955270;28;45910;-70
2021/12/12 06:41:00;;;;;;;;;16.00;14.75;;;;;;;;4959623;28;45411;-70
2021/12/12 06:43:25;;;;;;;;;18.25;13.00;;;;;;;;4956455;28;45384;-70
2021/12/12 06:45:51;;;;;;;;;22.00;16.00;;;;;;;;4956080;28;45417;-70
2021/12/12 06:48:17;;;;;;;;;27.00;14.75;;;;;;;;4967335;28;45681;-70
2021/12/12 06:50:45;;;;;;;;;17.00;13.00;;;;;;;;4955910;28;45524;-71
2021/12/12 06:53:11;;;;;;;;;18.50;16.00;;;;;;;;4957350;28;45552;-71
2021/12/12 06:55:39;;;;;;;;;17.00;13.50;;;;;;;;4956785;28;45431;-70
2021/12/12 06:58:06;;;;;;;;;17.75;16.00;;;;;;;;4956101;28;45871;-71
2021/12/12 07:00:31;;;;;;;;;18.00;16.00;;;;;;;;4956909;28;45342;-71
2021/12/12 07:02:56;;;;;;;;;19.00;15.50;;;;;;;;4959091;28;45396;-70
2021/12/12 07:05:23;;;;;;;;;17.33;11.67;;;;;;;;4958735;28;45590;-71
2021/12/12 07:07:49;;;;;;;;;16.25;13.00;;;;;;;;4961089;28;45877;-70
2021/12/12 07:10:15;;;;;;;;;12.50;11.75;;;;;;;;4952625;28;45496;-72
2021/12/12 07:12:41;;;;;;;;;18.75;12.50;;;;;;;;4941991;28;45445;-70
2021/12/12 07:15:09;;;;;;;;;19.00;14.00;;;;;;;;4957186;28;46612;-72
2021/12/12 07:17:34;;;;;;;;;17.00;13.00;;;;;;;;4954147;28;45819;-71
2021/12/12 07:19:59;;;;;;;;;22.50;14.00;;;;;;;;4951253;28;45486;-71
2021/12/12 07:22:25;;;;;;;;;24.00;17.00;;;;;;;;4948431;28;45467;-70
2021/12/12 07:24:51;;;;;;;;;18.25;17.25;;;;;;;;4952468;28;45433;-71
2021/12/12 07:27:16;;;;;;;;;13.75;11.75;;;;;;;;4954341;28;45424;-71
2021/12/12 07:29:41;;;;;;;;;18.75;13.25;;;;;;;;4958087;28;45690;-70
2021/12/12 07:32:07;;;;;;;;;15.25;14.00;;;;;;;;4961763;28;45308;-74
2021/12/12 07:34:33;;;;;;;;;15.50;12.50;;;;;;;;4959065;28;45445;-72
2021/12/12 07:37:01;;;;;;;;;13.25;11.25;;;;;;;;4954739;28;45507;-71
2021/12/12 07:39:27;;;;;;;;;20.25;12.50;;;;;;;;4953445;28;45612;-71
2021/12/12 07:41:54;;;;;;;;;19.00;10.25;;;;;;;;4959611;28;45603;-71
2021/12/12 07:44:21;;;;;;;;;13.25;12.00;;;;;;;;4953199;28;45562;-71
2021/12/12 07:46:46;;;;;;;;;20.00;14.50;;;;;;;;4958273;28;45898;-71
2021/12/12 07:49:12;;;;;;;;;16.50;14.25;;;;;;;;4967422;28;45350;-71
2021/12/12 07:51:39;;;;;;;;;18.25;11.50;;;;;;;;4954540;28;45504;-71
2021/12/12 07:54:04;;;;;;;;;18.25;14.50;;;;;;;;4959121;28;46227;-71
2021/12/12 07:56:31;;;;;;;;;22.50;16.25;;;;;;;;4955460;28;46302;-71
2021/12/12 07:58:57;;;;;;;;;14.75;13.50;;;;;;;;4954737;28;45407;-71
2021/12/12 08:01:22;;;;;;;;;16.75;13.25;;;;;;;;4954005;28;45413;-71
2021/12/12 08:03:50;;;;;;;;;20.25;12.25;;;;;;;;4954831;28;46420;-71
2021/12/12 08:06:16;;;;;;;;;12.75;12.50;;;;;;;;4955128;28;45281;-71
2021/12/12 08:08:42;;;;;;;;;17.25;13.00;;;;;;;;4968332;28;45575;-71
2021/12/12 08:11:08;;;;;;;;;19.50;13.00;;;;;;;;4958811;28;45455;-71
2021/12/12 08:13:34;;;;;;;;;13.00;13.00;;;;;;;;4954435;28;45426;-71
2021/12/12 08:16:01;;;;;;;;;19.50;14.25;;;;;;;;4958085;28;45507;-71
2021/12/12 08:18:27;;;;;;;;;15.50;12.25;;;;;;;;4954828;28;45509;-71
2021/12/12 08:20:52;;;;;;;;;16.50;13.00;;;;;;;;4953433;28;45302;-72
2021/12/12 08:23:18;;;;;;;;;15.00;13.00;;;;;;;;4953938;28;46412;-71
2021/12/12 08:25:45;;;;;;;;;13.75;12.00;;;;;;;;4960541;28;45560;-72
2021/12/12 08:28:10;;;;;;;;;13.50;11.50;;;;;;;;4956377;28;45764;-71
2021/12/12 08:30:36;;;;;;;;;11.50;11.50;;;;;;;;4954701;28;45639;-71
2021/12/12 08:33:05;;;;;;;;;13.00;12.50;;;;;;;;4955718;28;45570;-72
2021/12/12 08:35:30;;;;;;;;;14.75;12.00;;;;;;;;4999931;28;45780;-71
2021/12/12 08:37:58;;;;;;;;;19.75;13.00;;;;;;;;4964364;28;45494;-70
2021/12/12 08:40:25;;;;;;;;;14.00;13.00;;;;;;;;4964259;28;45491;-69
2021/12/12 08:42:51;;;;;;;;;15.75;10.75;;;;;;;;4957723;28;45568;-69
2021/12/12 08:45:18;;;;;;;;;15.25;14.75;;;;;;;;4956957;28;45492;-69
2021/12/12 08:47:44;;;;;;;;;16.50;13.25;;;;;;;;4958349;28;45547;-68
2021/12/12 08:50:11;;;;;;;;;18.25;15.00;;;;;;;;4958435;28;45388;-69
2021/12/12 08:52:40;;;;;;;;;17.25;12.50;;;;;;;;4956940;28;45573;-69
2021/12/12 08:55:07;;;;;;;;;16.50;11.50;;;;;;;;4953326;28;45834;-70
2021/12/12 08:57:44;;;;;;;;;14.00;13.00;;;;;;;;4953352;28;46097;-70
2021/12/12 09:00:15;;;;;;;;;17.00;12.75;;;;;;;;4953391;28;45464;-70
2021/12/12 09:02:41;;;;;;;;;16.75;12.50;;;;;;;;4952799;28;47429;-70
2021/12/12 09:05:13;;;;;;;;;16.00;12.50;;;;;;;;4954032;28;45539;-70
2021/12/12 09:07:40;;;;;;;;;17.50;13.50;;;;;;;;4953727;28;45451;-71
2021/12/12 09:10:17;;;;;;;;;12.75;10.25;;;;;;;;4952920;28;45552;-70
2021/12/12 09:12:46;;;;;;;;;16.75;12.75;;;;;;;;4953616;28;46040;-70
2021/12/12 09:15:21;;;;;;;;;19.75;12.75;;;;;;;;4951572;28;45519;-69
2021/12/12 09:17:53;;;;;;;;;16.50;13.75;;;;;;;;4953401;28;45439;-71
2021/12/12 09:20:34;;;;;;;;;13.75;12.00;;;;;;;;4954001;28;45676;-69
2021/12/12 09:23:02;;;;;;;;;14.25;11.75;;;;;;;;4951702;28;45634;-72
2021/12/12 09:25:52;;;;;;;;;17.25;14.00;;;;;;;;4956617;28;45887;-72
2021/12/12 09:28:36;;;;;;;;;12.75;11.50;;;;;;;;4950184;28;45432;-69
2021/12/12 09:31:08;;;;;;;;;13.25;13.25;;;;;;;;4954198;28;45451;-70
2021/12/12 09:33:43;;;;;;;;;18.50;13.00;;;;;;;;4954060;28;45587;-69
2021/12/12 09:36:28;;;;;;;;;12.50;10.50;;;;;;;;4950946;28;45592;-70
2021/12/12 09:38:58;;;;;;;;;13.00;10.25;;;;;;;;4953208;28;45444;-70
2021/12/12 09:41:30;;;;;;;;;15.75;11.75;;;;;;;;4960007;28;45647;-70
2021/12/12 09:44:13;;;;;;;;;16.00;15.25;;;;;;;;4949408;28;46602;-70
2021/12/12 09:47:25;;;;;;;;;17.00;13.25;;;;;;;;4950515;28;45779;-69
2021/12/12 09:52:55;;;;;;;;;17.50;15.00;;;;;;;;4963567;28;45759;-72
2021/12/12 09:55:27;;;;;;;;;12.75;11.00;;;;;;;;4947133;28;46394;-73
2021/12/12 09:57:59;;;;;;;;;18.25;13.75;;;;;;;;4955569;28;45456;-72
2021/12/12 10:00:30;;;;;;;;;18.25;14.75;;;;;;;;4956371;28;45349;-70
2021/12/12 10:03:14;;;;;;;;;15.75;13.25;;;;;;;;4974289;28;45575;-70
2021/12/12 10:05:56;;;;;;;;;15.75;14.00;;;;;;;;4958152;28;48433;-70
2021/12/12 10:08:21;;;;;;;;;19.25;13.75;;;;;;;;4957019;28;45902;-69
2021/12/12 10:10:53;;;;;;;;;17.00;13.75;;;;;;;;4956598;28;45317;-70
2021/12/12 10:13:30;;;;;;;;;16.00;12.50;;;;;;;;4948711;28;45640;-69
2021/12/12 10:15:57;;;;;;;;;18.75;15.00;;;;;;;;4951022;28;46535;-70
2021/12/12 10:18:41;;;;;;;;;15.00;14.25;;;;;;;;4955653;28;46052;-69
2021/12/12 10:21:09;;;;;;;;;15.75;13.25;;;;;;;;4958852;28;45364;-69
2021/12/12 10:23:40;;;;;;;;;17.00;15.00;;;;;;;;4956046;28;45395;-69
2021/12/12 10:26:10;;;;;;;;;12.75;11.00;;;;;;;;4956199;28;45526;-69
2021/12/12 10:28:43;;;;;;;;;18.25;10.00;;;;;;;;4951662;28;46033;-69
2021/12/12 10:31:18;;;;;;;;;22.00;16.00;;;;;;;;4952525;28;45553;-69
2021/12/12 10:33:46;;;;;;;;;3.50;2.00;;;;;;;;4947226;28;45476;-69
2021/12/12 10:36:14;;;;;;;;;21.25;15.00;;;;;;;;4955078;28;45440;-69
2021/12/12 10:38:43;;;;;;;;;15.75;14.50;;;;;;;;4956175;28;45365;-69
2021/12/12 10:41:08;;;;;;;;;19.50;15.50;;;;;;;;4952064;28;45329;-69
2021/12/12 10:43:36;;;;;;;;;23.75;16.25;;;;;;;;4958076;28;45325;-69
2021/12/12 10:46:05;;;;;;;;;17.75;15.50;;;;;;;;4955878;28;46465;-70
2021/12/12 10:48:33;;;;;;;;;19.00;16.00;;;;;;;;4955672;28;45964;-69
2021/12/12 10:51:05;;;;;;;;;21.00;15.00;;;;;;;;4956663;28;45489;-70
2021/12/12 10:54:00;;;;;;;;;16.00;14.00;;;;;;;;4954686;28;45514;-69
2021/12/12 10:56:38;;;;;;;;;20.25;16.25;;;;;;;;4953929;28;47022;-69
2021/12/12 10:59:10;;;;;;;;;21.50;16.75;;;;;;;;4955913;28;45728;-69
2021/12/12 11:01:39;;;;;;;;;20.00;17.50;;;;;;;;4955193;28;45574;-69
2021/12/12 11:04:10;;;;;;;;;17.50;14.50;;;;;;;;4985239;28;45544;-69
2021/12/12 11:06:37;;;;;;;;;17.50;16.50;;;;;;;;4954823;28;46263;-69
2021/12/12 11:09:12;;;;;;;;;20.75;15.50;;;;;;;;4955322;28;45775;-69
2021/12/12 11:11:42;;;;;;;;;18.75;17.00;;;;;;;;4956008;28;45532;-69
2021/12/12 11:14:19;;;;;;;;;20.50;17.50;;;;;;;;4952909;28;45420;-69
2021/12/12 11:16:44;;;;;;;;;20.00;14.75;;;;;;;;4954799;28;45611;-69
2021/12/12 11:19:14;;;;;;;;;16.50;15.25;;;;;;;;4956037;28;46717;-68
2021/12/12 11:21:48;;;;;;;;;17.75;14.50;;;;;;;;4954286;28;45518;-69
2021/12/12 11:24:23;;;;;;;;;17.50;13.00;;;;;;;;4952793;28;45637;-69
2021/12/12 11:26:56;;;;;;;;;16.50;15.50;;;;;;;;4954666;28;45742;-69
2021/12/12 11:29:27;;;;;;;;;19.50;16.50;;;;;;;;4956321;28;45332;-70
2021/12/12 11:31:55;;;;;;;;;18.25;11.75;;;;;;;;4951283;28;45314;-70
2021/12/12 11:34:22;;;;;;;;;14.75;14.75;;;;;;;;4956599;28;45403;-70
2021/12/12 11:37:03;;;;;;;;;19.75;16.50;;;;;;;;4954582;28;46135;-70
2021/12/12 11:39:39;;;;;;;;;17.25;17.25;;;;;;;;4949967;28;45391;-71
2021/12/12 11:42:15;;;;;;;;;14.00;14.00;;;;;;;;4956114;28;45370;-70
2021/12/12 11:44:47;;;;;;;;;23.00;18.75;;;;;;;;4956295;28;45747;-69
2021/12/12 11:47:29;;;;;;;;;18.25;16.25;;;;;;;;4959192;28;46479;-69
2021/12/12 11:50:03;;;;;;;;;17.75;14.50;;;;;;;;4954198;28;45344;-69
2021/12/12 11:52:31;;;;;;;;;17.00;16.00;;;;;;;;4954527;28;45290;-70
2021/12/12 11:55:20;;;;;;;;;24.00;20.75;;;;;;;;4953984;28;45318;-70
2021/12/12 11:57:53;;;;;;;;;19.25;17.75;;;;;;;;4939383;28;45529;-70
2021/12/12 12:00:25;;;;;;;;;19.00;16.00;;;;;;;;4952106;28;45900;-69
2021/12/12 12:03:09;;;;;;;;;21.50;20.50;;;;;;;;4953237;28;45455;-69
2021/12/12 12:05:44;;;;;;;;;15.75;12.75;;;;;;;;4962728;28;45601;-69
2021/12/12 12:08:18;;;;;;;;;16.50;12.75;;;;;;;;4955773;28;46358;-69
2021/12/12 12:10:43;;;;;;;;;20.00;15.25;;;;;;;;4954780;28;46075;-69
2021/12/12 12:13:12;;;;;;;;;22.33;16.33;;;;;;;;4974767;28;45743;-69
2021/12/12 12:15:37;;;;;;;;;17.00;13.75;;;;;;;;4960387;28;45707;-69
2021/12/12 12:18:16;;;;;;;;;20.00;15.00;;;;;;;;4954731;28;46469;-69
2021/12/12 12:21:01;;;;;;;;;15.25;14.25;;;;;;;;4953817;28;45503;-69
2021/12/12 12:23:48;;;;;;;;;16.50;15.25;;;;;;;;4956835;28;45286;-69
2021/12/12 12:29:24;;;;;;;;;21.00;15.75;;;;;;;;4956834;28;45539;-70
2021/12/12 12:32:02;;;;;;;;;16.25;14.75;;;;;;;;4959538;28;46956;-70
2021/12/12 12:35:02;;;;;;;;;16.25;15.25;;;;;;;;4957307;28;45474;-70
2021/12/12 12:37:46;;;;;;;;;20.25;17.75;;;;;;;;4922166;28;45471;-70
2021/12/12 12:40:30;;;;;;;;;18.00;16.00;;;;;;;;4917140;28;45578;-70
2021/12/12 12:43:14;;;;;;;;;16.00;12.25;;;;;;;;4923083;28;46003;-69
2021/12/12 12:45:51;;;;;;;;;14.50;13.25;;;;;;;;4916530;28;45578;-70
2021/12/12 12:48:35;;;;;;;;;18.00;17.00;;;;;;;;4915847;28;45532;-70
2021/12/12 12:51:19;;;;;;;;;15.25;13.25;;;;;;;;4916063;28;46620;-69
2021/12/12 12:54:03;;;;;;;;;58.25;46.00;;;;;;;;4920599;28;45413;-70
2021/12/12 12:56:47;;;;;;;;;16.00;14.50;;;;;;;;4916907;28;45672;-70
2021/12/12 12:59:19;;;;;;;;;16.25;13.50;;;;;;;;4915757;28;45467;-69
2021/12/12 13:02:02;;;;;;;;;18.50;14.00;;;;;;;;4916182;28;45816;-69
2021/12/12 13:04:27;;;;;;;;;15.75;14.50;;;;;;;;4912584;28;45965;-69
2021/12/12 13:07:08;;;;;;;;;18.00;15.33;;;;;;;;4915130;28;45514;-68
2021/12/12 13:09:43;;;;;;;;;16.25;12.50;;;;;;;;4915141;28;45384;-69
2021/12/12 13:12:09;;;;;;;;;17.25;14.00;;;;;;;;4944487;28;47395;-69
2021/12/12 13:14:58;;;;;;;;;17.50;17.00;;;;;;;;4957456;28;45629;-69
2021/12/12 13:17:26;;;;;;;;;17.25;15.00;;;;;;;;4952532;28;45406;-69
2021/12/12 13:20:07;;;;;;;;;14.50;14.00;;;;;;;;4948983;28;45461;-68
2021/12/12 13:22:32;;;;;;;;;20.00;15.50;;;;;;;;4952406;28;47172;-69
2021/12/12 13:25:03;;;;;;;;;19.33;16.00;;;;;;;;4956878;28;46884;-69
2021/12/12 13:28:08;;;;;;;;;18.00;16.25;;;;;;;;4955872;28;45423;-69
2021/12/12 13:31:01;;;;;;;;;19.50;15.75;;;;;;;;4956935;28;45489;-69
2021/12/12 13:33:34;;;;;;;;;18.50;16.75;;;;;;;;4947447;28;46282;-69
2021/12/12 13:36:05;;;;;;;;;15.00;11.00;;;;;;;;4954337;28;45423;-69
2021/12/12 13:38:48;;;;;;;;;15.25;13.00;;;;;;;;4955090;28;45477;-69
2021/12/12 13:41:32;;;;;;;;;20.50;14.00;;;;;;;;4937772;28;46471;-70
2021/12/12 13:44:03;;;;;;;;;22.00;16.25;;;;;;;;4952136;28;45794;-69
2021/12/12 13:46:36;;;;;;;;;19.50;16.50;;;;;;;;4953572;28;46018;-70
2021/12/12 13:49:04;;;;;;;;;19.00;15.75;;;;;;;;4954781;28;46755;-70
2021/12/12 13:51:38;;;;;;;;;16.00;14.25;;;;;;;;4953475;28;45390;-70
2021/12/12 13:54:12;;;;;;;;;21.25;15.00;;;;;;;;4955504;28;45504;-70
2021/12/12 13:56:46;;;;;;;;;14.50;14.00;;;;;;;;4953532;28;45852;-70
2021/12/12 13:59:19;;;;;;;;;24.00;18.25;;;;;;;;4954492;28;46776;-70
2021/12/12 14:01:48;;;;;;;;;13.25;12.50;;;;;;;;4954098;28;45500;-70
2021/12/12 14:04:36;;;;;;;;;17.25;14.75;;;;;;;;4954184;28;45734;-70
2021/12/12 14:07:02;;;;;;;;;16.50;14.50;;;;;;;;4943236;28;45400;-69
2021/12/12 14:09:28;;;;;;;;;20.75;13.75;;;;;;;;4948234;28;45981;-70
2021/12/12 14:11:55;;;;;;;;;19.75;14.75;;;;;;;;4951179;28;45645;-70
2021/12/12 14:14:26;;;;;;;;;15.00;11.25;;;;;;;;4950995;28;45357;-69
2021/12/12 14:16:54;;;;;;;;;18.00;14.75;;;;;;;;4949010;28;45503;-69
2021/12/12 14:19:25;;;;;;;;;12.75;12.25;;;;;;;;4967675;28;45455;-69
2021/12/12 14:21:50;;;;;;;;;14.00;12.25;;;;;;;;4965937;28;45424;-69
2021/12/12 14:24:16;;;;;;;;;17.75;13.00;;;;;;;;4952033;28;45488;-69
2021/12/12 14:26:44;;;;;;;;;14.75;12.00;;;;;;;;4949925;28;45509;-69
2021/12/12 14:29:12;;;;;;;;;14.25;12.75;;;;;;;;4951798;28;45436;-69
2021/12/12 14:31:41;;;;;;;;;16.00;12.00;;;;;;;;4948799;28;45621;-69
2021/12/12 14:34:11;;;;;;;;;11.25;10.50;;;;;;;;4947506;28;45504;-70
2021/12/12 14:36:40;;;;;;;;;15.00;13.25;;;;;;;;4957403;28;45837;-70
2021/12/12 14:39:06;;;;;;;;;15.50;12.75;;;;;;;;4949226;28;45614;-69
2021/12/12 14:41:35;;;;;;;;;11.75;11.75;;;;;;;;4950619;28;45408;-70
2021/12/12 14:44:05;;;;;;;;;11.00;9.00;;;;;;;;4947889;28;46265;-70
2021/12/12 14:46:35;;;;;;;;;12.00;11.00;;;;;;;;4940360;28;45485;-70
2021/12/12 14:49:03;;;;;;;;;17.25;11.75;;;;;;;;4950723;28;45634;-70
2021/12/12 14:51:30;;;;;;;;;16.75;12.75;;;;;;;;4953224;28;45659;-70
2021/12/12 14:54:01;;;;;;;;;24.00;15.00;;;;;;;;4949333;28;46630;-69
2021/12/12 14:56:29;;;;;;;;;16.50;13.25;;;;;;;;4951695;28;45566;-70
2021/12/12 14:58:56;;;;;;;;;18.50;16.00;;;;;;;;4952647;28;45822;-70
2021/12/12 15:01:34;;;;;;;;;15.75;13.50;;;;;;;;4952939;28;45747;-70